sensor_id;sensor_type;location;lat;lon;timestamp;P1;durP1;ratioP1;P2;durP2;ratioP2
12814;SDS011;6472;52.328;13.070;2022-12-07T00:00:13;8.00;;;4.03;;
12814;SDS011;6472;52.328;13.070;2022-12-07T00:02:42;3.87;;;2.77;;
12814;SDS011;6472;52.328;13.070;2022-12-07T00:05:10;6.73;;;3.93;;
12814;SDS011;6472;52.328;13.070;2022-12-07T00:07:39;4.07;;;2.67;;
12814;SDS011;6472;52.328;13.070;2022-12-07T00:10:07;5.40;;;3.93;;
12814;SDS011;6472;52.328;13.070;2022-12-07T00:12:35;5.67;;;4.17;;
12814;SDS011;6472;52.328;13.070;2022-12-07T00:15:06;7.33;;;4.47;;
12814;SDS011;6472;52.328;13.070;2022-12-07T00:17:34;7.17;;;2.73;;
12814;SDS011;6472;52.328;13.070;2022-12-07T00:20:03;4.33;;;2.67;;
12814;SDS011;6472;52.328;13.070;2022-12-07T00:22:32;6.00;;;3.27;;
12814;SDS011;6472;52.328;13.070;2022-12-07T00:25:00;4.53;;;2.90;;
12814;SDS011;6472;52.328;13.070;2022-12-07T00:27:28;4.33;;;3.23;;
12814;SDS011;6472;52.328;13.070;2022-12-07T00:29:56;4.13;;;2.50;;
12814;SDS011;6472;52.328;13.070;2022-12-07T00:32:26;5.37;;;2.60;;
12814;SDS011;6472;52.328;13.070;2022-12-07T00:34:54;5.60;;;3.40;;
12814;SDS011;6472;52.328;13.070;2022-12-07T00:37:22;6.57;;;2.13;;
12814;SDS011;6472;52.328;13.070;2022-12-07T00:39:50;4.00;;;2.70;;
12814;SDS011;6472;52.328;13.070;2022-12-07T00:42:24;5.17;;;3.03;;
12814;SDS011;6472;52.328;13.070;2022-12-07T00:44:52;6.50;;;3.30;;
12814;SDS011;6472;52.328;13.070;2022-12-07T00:47:20;3.63;;;2.37;;
12814;SDS011;6472;52.328;13.070;2022-12-07T00:49:50;4.20;;;3.50;;
12814;SDS011;6472;52.328;13.070;2022-12-07T00:52:18;3.93;;;3.23;;
12814;SDS011;6472;52.328;13.070;2022-12-07T00:54:46;6.53;;;3.43;;
12814;SDS011;6472;52.328;13.070;2022-12-07T00:57:14;3.63;;;2.57;;
12814;SDS011;6472;52.328;13.070;2022-12-07T00:59:42;4.20;;;2.97;;
12814;SDS011;6472;52.328;13.070;2022-12-07T01:02:10;6.10;;;3.40;;
12814;SDS011;6472;52.328;13.070;2022-12-07T01:04:38;3.63;;;2.77;;
12814;SDS011;6472;52.328;13.070;2022-12-07T01:07:08;4.07;;;2.80;;
12814;SDS011;6472;52.328;13.070;2022-12-07T01:09:38;4.23;;;3.33;;
12814;SDS011;6472;52.328;13.070;2022-12-07T01:12:06;4.00;;;2.87;;
12814;SDS011;6472;52.328;13.070;2022-12-07T01:14:35;5.17;;;2.67;;
12814;SDS011;6472;52.328;13.070;2022-12-07T01:17:03;3.87;;;2.87;;
12814;SDS011;6472;52.328;13.070;2022-12-07T01:19:31;3.63;;;2.77;;
12814;SDS011;6472;52.328;13.070;2022-12-07T01:22:00;3.30;;;2.13;;
12814;SDS011;6472;52.328;13.070;2022-12-07T01:24:29;5.77;;;2.67;;
12814;SDS011;6472;52.328;13.070;2022-12-07T01:26:58;4.73;;;3.20;;
12814;SDS011;6472;52.328;13.070;2022-12-07T01:29:26;4.50;;;3.00;;
12814;SDS011;6472;52.328;13.070;2022-12-07T01:31:54;2.17;;;1.90;;
12814;SDS011;6472;52.328;13.070;2022-12-07T01:34:23;2.93;;;2.67;;
12814;SDS011;6472;52.328;13.070;2022-12-07T01:36:51;5.33;;;3.13;;
12814;SDS011;6472;52.328;13.070;2022-12-07T01:39:19;1.67;;;1.57;;
12814;SDS011;6472;52.328;13.070;2022-12-07T01:41:49;5.07;;;2.10;;
12814;SDS011;6472;52.328;13.070;2022-12-07T01:44:18;3.57;;;2.47;;
12814;SDS011;6472;52.328;13.070;2022-12-07T01:46:49;5.07;;;2.73;;
12814;SDS011;6472;52.328;13.070;2022-12-07T01:51:58;3.00;;;2.70;;
12814;SDS011;6472;52.328;13.070;2022-12-07T01:54:31;2.87;;;2.57;;
12814;SDS011;6472;52.328;13.070;2022-12-07T01:57:03;2.33;;;1.50;;
12814;SDS011;6472;52.328;13.070;2022-12-07T01:59:33;3.60;;;2.30;;
12814;SDS011;6472;52.328;13.070;2022-12-07T02:02:04;4.20;;;2.43;;
12814;SDS011;6472;52.328;13.070;2022-12-07T02:04:41;2.47;;;2.17;;
12814;SDS011;6472;52.328;13.070;2022-12-07T02:07:10;8.67;;;3.37;;
12814;SDS011;6472;52.328;13.070;2022-12-07T02:09:38;3.10;;;2.10;;
12814;SDS011;6472;52.328;13.070;2022-12-07T02:12:11;5.80;;;2.57;;
12814;SDS011;6472;52.328;13.070;2022-12-07T02:14:39;3.47;;;2.43;;
12814;SDS011;6472;52.328;13.070;2022-12-07T02:17:08;3.40;;;2.00;;
12814;SDS011;6472;52.328;13.070;2022-12-07T02:22:51;2.67;;;1.63;;
12814;SDS011;6472;52.328;13.070;2022-12-07T02:25:30;7.17;;;2.83;;
12814;SDS011;6472;52.328;13.070;2022-12-07T02:28:12;3.67;;;2.10;;
12814;SDS011;6472;52.328;13.070;2022-12-07T02:30:50;2.47;;;2.17;;
12814;SDS011;6472;52.328;13.070;2022-12-07T02:33:23;4.40;;;2.00;;
12814;SDS011;6472;52.328;13.070;2022-12-07T02:35:57;4.03;;;2.47;;
12814;SDS011;6472;52.328;13.070;2022-12-07T02:38:31;5.97;;;3.00;;
12814;SDS011;6472;52.328;13.070;2022-12-07T02:41:05;3.27;;;2.33;;
12814;SDS011;6472;52.328;13.070;2022-12-07T02:43:37;4.67;;;3.33;;
12814;SDS011;6472;52.328;13.070;2022-12-07T02:46:11;2.47;;;2.27;;
12814;SDS011;6472;52.328;13.070;2022-12-07T02:48:43;4.13;;;2.57;;
12814;SDS011;6472;52.328;13.070;2022-12-07T02:51:12;5.73;;;3.43;;
12814;SDS011;6472;52.328;13.070;2022-12-07T02:53:41;5.90;;;2.53;;
12814;SDS011;6472;52.328;13.070;2022-12-07T02:56:13;2.77;;;1.83;;
12814;SDS011;6472;52.328;13.070;2022-12-07T02:58:50;4.57;;;2.70;;
12814;SDS011;6472;52.328;13.070;2022-12-07T03:01:30;5.60;;;2.50;;
12814;SDS011;6472;52.328;13.070;2022-12-07T03:04:10;3.10;;;1.90;;
12814;SDS011;6472;52.328;13.070;2022-12-07T03:06:53;2.50;;;1.97;;
12814;SDS011;6472;52.328;13.070;2022-12-07T03:09:28;7.17;;;3.43;;
12814;SDS011;6472;52.328;13.070;2022-12-07T03:12:03;5.30;;;3.17;;
12814;SDS011;6472;52.328;13.070;2022-12-07T03:14:38;4.50;;;2.53;;
12814;SDS011;6472;52.328;13.070;2022-12-07T03:17:12;4.60;;;3.07;;
12814;SDS011;6472;52.328;13.070;2022-12-07T03:19:44;5.57;;;2.67;;
12814;SDS011;6472;52.328;13.070;2022-12-07T03:22:13;5.37;;;3.40;;
12814;SDS011;6472;52.328;13.070;2022-12-07T03:24:43;7.87;;;4.03;;
12814;SDS011;6472;52.328;13.070;2022-12-07T03:27:19;11.80;;;5.30;;
12814;SDS011;6472;52.328;13.070;2022-12-07T03:29:51;6.83;;;3.07;;
12814;SDS011;6472;52.328;13.070;2022-12-07T03:32:29;8.53;;;3.40;;
12814;SDS011;6472;52.328;13.070;2022-12-07T03:35:00;10.30;;;4.47;;
12814;SDS011;6472;52.328;13.070;2022-12-07T03:37:33;9.60;;;3.90;;
12814;SDS011;6472;52.328;13.070;2022-12-07T03:40:05;9.00;;;5.17;;
12814;SDS011;6472;52.328;13.070;2022-12-07T03:42:35;11.53;;;4.27;;
12814;SDS011;6472;52.328;13.070;2022-12-07T03:45:03;7.27;;;3.80;;
12814;SDS011;6472;52.328;13.070;2022-12-07T03:47:35;7.40;;;4.43;;
12814;SDS011;6472;52.328;13.070;2022-12-07T03:50:10;10.27;;;4.27;;
12814;SDS011;6472;52.328;13.070;2022-12-07T03:52:44;6.03;;;4.40;;
12814;SDS011;6472;52.328;13.070;2022-12-07T03:55:18;10.00;;;4.63;;
12814;SDS011;6472;52.328;13.070;2022-12-07T03:57:53;13.10;;;5.07;;
12814;SDS011;6472;52.328;13.070;2022-12-07T04:00:24;11.00;;;4.73;;
12814;SDS011;6472;52.328;13.070;2022-12-07T04:02:53;12.17;;;4.67;;
12814;SDS011;6472;52.328;13.070;2022-12-07T04:05:22;20.77;;;5.03;;
12814;SDS011;6472;52.328;13.070;2022-12-07T04:07:50;9.67;;;4.80;;
12814;SDS011;6472;52.328;13.070;2022-12-07T04:10:18;7.97;;;4.47;;
12814;SDS011;6472;52.328;13.070;2022-12-07T04:13:20;8.83;;;5.40;;
12814;SDS011;6472;52.328;13.070;2022-12-07T04:15:58;12.47;;;6.20;;
12814;SDS011;6472;52.328;13.070;2022-12-07T04:18:29;10.10;;;4.80;;
12814;SDS011;6472;52.328;13.070;2022-12-07T04:21:23;10.90;;;5.13;;
12814;SDS011;6472;52.328;13.070;2022-12-07T04:23:52;12.07;;;4.60;;
12814;SDS011;6472;52.328;13.070;2022-12-07T04:26:45;9.87;;;5.10;;
12814;SDS011;6472;52.328;13.070;2022-12-07T04:29:14;14.57;;;6.50;;
12814;SDS011;6472;52.328;13.070;2022-12-07T04:31:45;15.80;;;6.40;;
12814;SDS011;6472;52.328;13.070;2022-12-07T04:34:15;10.63;;;5.07;;
12814;SDS011;6472;52.328;13.070;2022-12-07T04:36:44;15.00;;;5.23;;
12814;SDS011;6472;52.328;13.070;2022-12-07T04:39:17;17.03;;;6.53;;
12814;SDS011;6472;52.328;13.070;2022-12-07T04:41:49;11.77;;;5.43;;
12814;SDS011;6472;52.328;13.070;2022-12-07T04:44:18;11.70;;;5.30;;
12814;SDS011;6472;52.328;13.070;2022-12-07T04:46:50;11.23;;;5.27;;
12814;SDS011;6472;52.328;13.070;2022-12-07T04:49:21;11.40;;;6.47;;
12814;SDS011;6472;52.328;13.070;2022-12-07T04:51:49;18.80;;;7.47;;
12814;SDS011;6472;52.328;13.070;2022-12-07T04:54:26;9.50;;;5.33;;
12814;SDS011;6472;52.328;13.070;2022-12-07T04:56:54;7.03;;;4.23;;
12814;SDS011;6472;52.328;13.070;2022-12-07T04:59:29;15.53;;;6.90;;
12814;SDS011;6472;52.328;13.070;2022-12-07T05:02:14;13.47;;;6.87;;
12814;SDS011;6472;52.328;13.070;2022-12-07T05:04:44;14.37;;;6.23;;
12814;SDS011;6472;52.328;13.070;2022-12-07T05:07:20;13.40;;;5.47;;
12814;SDS011;6472;52.328;13.070;2022-12-07T05:10:33;12.37;;;6.33;;
12814;SDS011;6472;52.328;13.070;2022-12-07T05:15:54;11.50;;;6.10;;
12814;SDS011;6472;52.328;13.070;2022-12-07T05:18:30;9.23;;;5.97;;
12814;SDS011;6472;52.328;13.070;2022-12-07T05:21:17;12.37;;;5.93;;
12814;SDS011;6472;52.328;13.070;2022-12-07T05:27:09;14.37;;;6.93;;
12814;SDS011;6472;52.328;13.070;2022-12-07T05:30:38;9.50;;;6.17;;
12814;SDS011;6472;52.328;13.070;2022-12-07T05:33:50;15.43;;;6.37;;
12814;SDS011;6472;52.328;13.070;2022-12-07T05:40:12;8.07;;;5.07;;
12814;SDS011;6472;52.328;13.070;2022-12-07T05:42:41;10.17;;;6.20;;
12814;SDS011;6472;52.328;13.070;2022-12-07T05:45:10;14.37;;;7.43;;
12814;SDS011;6472;52.328;13.070;2022-12-07T05:47:38;15.83;;;7.80;;
12814;SDS011;6472;52.328;13.070;2022-12-07T05:50:07;13.00;;;6.93;;
12814;SDS011;6472;52.328;13.070;2022-12-07T05:52:36;13.47;;;6.23;;
12814;SDS011;6472;52.328;13.070;2022-12-07T05:55:04;14.43;;;7.60;;
12814;SDS011;6472;52.328;13.070;2022-12-07T05:57:34;12.27;;;5.40;;
12814;SDS011;6472;52.328;13.070;2022-12-07T06:00:02;15.07;;;7.73;;
12814;SDS011;6472;52.328;13.070;2022-12-07T06:02:30;10.63;;;5.70;;
12814;SDS011;6472;52.328;13.070;2022-12-07T06:04:58;16.80;;;7.83;;
12814;SDS011;6472;52.328;13.070;2022-12-07T06:07:26;17.93;;;6.87;;
12814;SDS011;6472;52.328;13.070;2022-12-07T06:09:56;18.50;;;8.07;;
12814;SDS011;6472;52.328;13.070;2022-12-07T06:12:26;15.10;;;7.67;;
12814;SDS011;6472;52.328;13.070;2022-12-07T06:15:02;13.77;;;6.60;;
12814;SDS011;6472;52.328;13.070;2022-12-07T06:17:30;14.47;;;7.83;;
12814;SDS011;6472;52.328;13.070;2022-12-07T06:19:58;15.10;;;6.67;;
12814;SDS011;6472;52.328;13.070;2022-12-07T06:22:27;13.27;;;8.17;;
12814;SDS011;6472;52.328;13.070;2022-12-07T06:24:56;12.70;;;6.70;;
12814;SDS011;6472;52.328;13.070;2022-12-07T06:27:26;15.97;;;8.47;;
12814;SDS011;6472;52.328;13.070;2022-12-07T06:29:54;15.83;;;8.33;;
12814;SDS011;6472;52.328;13.070;2022-12-07T06:32:22;19.20;;;8.73;;
12814;SDS011;6472;52.328;13.070;2022-12-07T06:34:51;13.70;;;6.50;;
12814;SDS011;6472;52.328;13.070;2022-12-07T06:37:19;14.90;;;8.20;;
12814;SDS011;6472;52.328;13.070;2022-12-07T06:39:47;14.77;;;7.07;;
12814;SDS011;6472;52.328;13.070;2022-12-07T06:42:16;18.57;;;7.53;;
12814;SDS011;6472;52.328;13.070;2022-12-07T06:44:46;19.23;;;9.13;;
12814;SDS011;6472;52.328;13.070;2022-12-07T06:47:14;17.63;;;8.73;;
12814;SDS011;6472;52.328;13.070;2022-12-07T06:50:02;14.97;;;8.23;;
12814;SDS011;6472;52.328;13.070;2022-12-07T06:52:32;13.63;;;6.53;;
12814;SDS011;6472;52.328;13.070;2022-12-07T06:55:00;17.50;;;8.20;;
12814;SDS011;6472;52.328;13.070;2022-12-07T06:57:30;11.33;;;6.80;;
12814;SDS011;6472;52.328;13.070;2022-12-07T06:59:58;16.97;;;7.97;;
12814;SDS011;6472;52.328;13.070;2022-12-07T07:02:27;11.80;;;6.87;;
12814;SDS011;6472;52.328;13.070;2022-12-07T07:04:55;19.93;;;8.27;;
12814;SDS011;6472;52.328;13.070;2022-12-07T07:07:23;13.77;;;6.70;;
12814;SDS011;6472;52.328;13.070;2022-12-07T07:09:51;14.43;;;8.50;;
12814;SDS011;6472;52.328;13.070;2022-12-07T07:12:20;20.33;;;9.43;;
12814;SDS011;6472;52.328;13.070;2022-12-07T07:14:50;15.90;;;8.10;;
12814;SDS011;6472;52.328;13.070;2022-12-07T07:17:18;16.20;;;7.47;;
12814;SDS011;6472;52.328;13.070;2022-12-07T07:19:46;11.53;;;7.07;;
12814;SDS011;6472;52.328;13.070;2022-12-07T07:22:14;19.17;;;7.60;;
12814;SDS011;6472;52.328;13.070;2022-12-07T07:24:42;17.70;;;7.63;;
12814;SDS011;6472;52.328;13.070;2022-12-07T07:27:10;11.93;;;5.97;;
12814;SDS011;6472;52.328;13.070;2022-12-07T07:29:38;17.10;;;8.47;;
12814;SDS011;6472;52.328;13.070;2022-12-07T07:32:08;15.13;;;8.63;;
12814;SDS011;6472;52.328;13.070;2022-12-07T07:34:36;14.73;;;6.50;;
12814;SDS011;6472;52.328;13.070;2022-12-07T07:37:04;16.37;;;6.97;;
12814;SDS011;6472;52.328;13.070;2022-12-07T07:39:32;14.40;;;6.30;;
12814;SDS011;6472;52.328;13.070;2022-12-07T07:42:00;14.13;;;5.63;;
12814;SDS011;6472;52.328;13.070;2022-12-07T07:44:28;11.17;;;6.17;;
12814;SDS011;6472;52.328;13.070;2022-12-07T07:47:00;11.43;;;5.97;;
12814;SDS011;6472;52.328;13.070;2022-12-07T07:49:30;13.70;;;7.30;;
12814;SDS011;6472;52.328;13.070;2022-12-07T07:51:58;13.40;;;5.90;;
12814;SDS011;6472;52.328;13.070;2022-12-07T07:54:26;14.70;;;6.53;;
12814;SDS011;6472;52.328;13.070;2022-12-07T07:56:57;15.93;;;7.97;;
12814;SDS011;6472;52.328;13.070;2022-12-07T07:59:26;13.33;;;6.67;;
12814;SDS011;6472;52.328;13.070;2022-12-07T08:01:54;11.93;;;5.83;;
12814;SDS011;6472;52.328;13.070;2022-12-07T08:04:22;13.33;;;5.80;;
12814;SDS011;6472;52.328;13.070;2022-12-07T08:06:52;15.80;;;6.30;;
12814;SDS011;6472;52.328;13.070;2022-12-07T08:09:20;20.37;;;7.67;;
12814;SDS011;6472;52.328;13.070;2022-12-07T08:11:48;9.53;;;5.33;;
12814;SDS011;6472;52.328;13.070;2022-12-07T08:14:16;6.67;;;4.47;;
12814;SDS011;6472;52.328;13.070;2022-12-07T08:16:44;8.00;;;4.97;;
12814;SDS011;6472;52.328;13.070;2022-12-07T08:19:12;5.53;;;3.13;;
12814;SDS011;6472;52.328;13.070;2022-12-07T08:21:40;8.20;;;4.70;;
12814;SDS011;6472;52.328;13.070;2022-12-07T08:24:10;6.77;;;4.27;;
12814;SDS011;6472;52.328;13.070;2022-12-07T08:26:38;4.97;;;3.87;;
12814;SDS011;6472;52.328;13.070;2022-12-07T08:29:07;5.87;;;2.80;;
12814;SDS011;6472;52.328;13.070;2022-12-07T08:31:35;7.53;;;4.27;;
12814;SDS011;6472;52.328;13.070;2022-12-07T08:34:03;5.57;;;3.17;;
12814;SDS011;6472;52.328;13.070;2022-12-07T08:36:31;13.47;;;4.53;;
12814;SDS011;6472;52.328;13.070;2022-12-07T08:39:00;5.20;;;3.27;;
12814;SDS011;6472;52.328;13.070;2022-12-07T08:41:49;5.13;;;3.80;;
12814;SDS011;6472;52.328;13.070;2022-12-07T08:44:17;8.50;;;4.57;;
12814;SDS011;6472;52.328;13.070;2022-12-07T08:46:46;5.47;;;3.13;;
12814;SDS011;6472;52.328;13.070;2022-12-07T08:49:20;8.97;;;4.33;;
12814;SDS011;6472;52.328;13.070;2022-12-07T08:51:51;6.70;;;3.17;;
12814;SDS011;6472;52.328;13.070;2022-12-07T08:54:20;12.03;;;4.10;;
12814;SDS011;6472;52.328;13.070;2022-12-07T08:56:51;6.33;;;4.00;;
12814;SDS011;6472;52.328;13.070;2022-12-07T08:59:25;5.77;;;3.57;;
12814;SDS011;6472;52.328;13.070;2022-12-07T09:02:10;2.57;;;1.93;;
12814;SDS011;6472;52.328;13.070;2022-12-07T09:04:39;4.60;;;2.90;;
12814;SDS011;6472;52.328;13.070;2022-12-07T09:07:07;3.47;;;2.20;;
12814;SDS011;6472;52.328;13.070;2022-12-07T09:09:36;5.63;;;3.13;;
12814;SDS011;6472;52.328;13.070;2022-12-07T09:12:06;2.97;;;2.63;;
12814;SDS011;6472;52.328;13.070;2022-12-07T09:14:34;3.23;;;2.30;;
12814;SDS011;6472;52.328;13.070;2022-12-07T09:17:05;9.00;;;2.10;;
12814;SDS011;6472;52.328;13.070;2022-12-07T09:19:34;5.87;;;2.40;;
12814;SDS011;6472;52.328;13.070;2022-12-07T09:22:02;2.00;;;1.80;;
12814;SDS011;6472;52.328;13.070;2022-12-07T09:24:32;3.70;;;2.57;;
12814;SDS011;6472;52.328;13.070;2022-12-07T09:27:00;4.83;;;2.47;;
12814;SDS011;6472;52.328;13.070;2022-12-07T09:29:30;3.50;;;2.53;;
12814;SDS011;6472;52.328;13.070;2022-12-07T09:31:58;3.70;;;2.17;;
12814;SDS011;6472;52.328;13.070;2022-12-07T09:34:33;4.87;;;2.93;;
12814;SDS011;6472;52.328;13.070;2022-12-07T09:37:01;2.80;;;1.93;;
12814;SDS011;6472;52.328;13.070;2022-12-07T09:39:30;3.83;;;2.13;;
12814;SDS011;6472;52.328;13.070;2022-12-07T09:41:58;4.20;;;3.00;;
12814;SDS011;6472;52.328;13.070;2022-12-07T09:44:31;4.07;;;2.60;;
12814;SDS011;6472;52.328;13.070;2022-12-07T09:47:00;6.33;;;2.40;;
12814;SDS011;6472;52.328;13.070;2022-12-07T09:49:31;5.83;;;2.97;;
12814;SDS011;6472;52.328;13.070;2022-12-07T09:52:00;8.80;;;2.50;;
12814;SDS011;6472;52.328;13.070;2022-12-07T09:54:30;8.73;;;2.80;;
12814;SDS011;6472;52.328;13.070;2022-12-07T09:56:58;4.83;;;3.07;;
12814;SDS011;6472;52.328;13.070;2022-12-07T09:59:27;3.43;;;2.57;;
12814;SDS011;6472;52.328;13.070;2022-12-07T10:02:19;3.60;;;2.37;;
12814;SDS011;6472;52.328;13.070;2022-12-07T10:04:54;3.00;;;2.33;;
12814;SDS011;6472;52.328;13.070;2022-12-07T10:07:26;3.67;;;2.73;;
12814;SDS011;6472;52.328;13.070;2022-12-07T10:09:54;4.77;;;3.70;;
12814;SDS011;6472;52.328;13.070;2022-12-07T10:12:22;3.73;;;2.90;;
12814;SDS011;6472;52.328;13.070;2022-12-07T10:15:09;3.40;;;2.93;;
12814;SDS011;6472;52.328;13.070;2022-12-07T10:17:39;2.60;;;2.10;;
12814;SDS011;6472;52.328;13.070;2022-12-07T10:20:20;5.10;;;2.90;;
12814;SDS011;6472;52.328;13.070;2022-12-07T10:22:56;6.10;;;2.70;;
12814;SDS011;6472;52.328;13.070;2022-12-07T10:25:26;1.87;;;1.77;;
12814;SDS011;6472;52.328;13.070;2022-12-07T10:27:57;2.70;;;2.50;;
12814;SDS011;6472;52.328;13.070;2022-12-07T10:30:27;4.60;;;3.03;;
12814;SDS011;6472;52.328;13.070;2022-12-07T10:32:56;1.93;;;1.73;;
12814;SDS011;6472;52.328;13.070;2022-12-07T10:35:25;5.07;;;2.80;;
12814;SDS011;6472;52.328;13.070;2022-12-07T10:37:55;5.87;;;2.53;;
12814;SDS011;6472;52.328;13.070;2022-12-07T10:40:26;4.80;;;2.20;;
12814;SDS011;6472;52.328;13.070;2022-12-07T10:43:00;4.07;;;2.03;;
12814;SDS011;6472;52.328;13.070;2022-12-07T10:45:30;3.27;;;2.63;;
12814;SDS011;6472;52.328;13.070;2022-12-07T10:48:10;3.33;;;2.37;;
12814;SDS011;6472;52.328;13.070;2022-12-07T10:50:52;2.77;;;1.63;;
12814;SDS011;6472;52.328;13.070;2022-12-07T10:53:33;5.30;;;2.43;;
12814;SDS011;6472;52.328;13.070;2022-12-07T10:59:24;4.07;;;2.27;;
12814;SDS011;6472;52.328;13.070;2022-12-07T11:02:32;4.70;;;2.20;;
12814;SDS011;6472;52.328;13.070;2022-12-07T11:05:15;6.07;;;2.30;;
12814;SDS011;6472;52.328;13.070;2022-12-07T11:07:51;2.50;;;2.07;;
12814;SDS011;6472;52.328;13.070;2022-12-07T11:10:29;3.37;;;2.17;;
12814;SDS011;6472;52.328;13.070;2022-12-07T11:16:03;5.67;;;2.13;;
12814;SDS011;6472;52.328;13.070;2022-12-07T11:18:54;4.20;;;2.00;;
12814;SDS011;6472;52.328;13.070;2022-12-07T11:21:44;2.43;;;1.73;;
12814;SDS011;6472;52.328;13.070;2022-12-07T11:24:17;3.30;;;1.97;;
12814;SDS011;6472;52.328;13.070;2022-12-07T11:26:53;5.13;;;1.87;;
12814;SDS011;6472;52.328;13.070;2022-12-07T11:29:40;3.10;;;2.00;;
12814;SDS011;6472;52.328;13.070;2022-12-07T11:32:31;6.20;;;2.20;;
12814;SDS011;6472;52.328;13.070;2022-12-07T11:35:17;3.37;;;2.03;;
12814;SDS011;6472;52.328;13.070;2022-12-07T11:37:56;1.77;;;1.47;;
12814;SDS011;6472;52.328;13.070;2022-12-07T11:40:29;6.73;;;1.63;;
12814;SDS011;6472;52.328;13.070;2022-12-07T11:43:04;2.40;;;1.73;;
12814;SDS011;6472;52.328;13.070;2022-12-07T11:45:40;2.00;;;1.83;;
12814;SDS011;6472;52.328;13.070;2022-12-07T11:48:11;2.00;;;1.90;;
12814;SDS011;6472;52.328;13.070;2022-12-07T11:50:46;2.97;;;1.70;;
12814;SDS011;6472;52.328;13.070;2022-12-07T11:53:19;3.20;;;2.00;;
12814;SDS011;6472;52.328;13.070;2022-12-07T11:55:54;3.47;;;2.40;;
12814;SDS011;6472;52.328;13.070;2022-12-07T11:58:35;5.17;;;1.67;;
12814;SDS011;6472;52.328;13.070;2022-12-07T12:01:24;1.83;;;1.63;;
12814;SDS011;6472;52.328;13.070;2022-12-07T12:04:01;3.23;;;1.70;;
12814;SDS011;6472;52.328;13.070;2022-12-07T12:06:33;2.30;;;1.33;;
12814;SDS011;6472;52.328;13.070;2022-12-07T12:09:04;2.97;;;2.03;;
12814;SDS011;6472;52.328;13.070;2022-12-07T12:12:05;4.63;;;2.27;;
12814;SDS011;6472;52.328;13.070;2022-12-07T12:15:13;1.43;;;1.33;;
12814;SDS011;6472;52.328;13.070;2022-12-07T12:20:52;2.20;;;1.50;;
12814;SDS011;6472;52.328;13.070;2022-12-07T12:23:26;1.70;;;1.57;;
12814;SDS011;6472;52.328;13.070;2022-12-07T12:26:05;1.40;;;1.30;;
12814;SDS011;6472;52.328;13.070;2022-12-07T12:28:36;2.57;;;1.73;;
12814;SDS011;6472;52.328;13.070;2022-12-07T12:31:16;2.13;;;1.27;;
12814;SDS011;6472;52.328;13.070;2022-12-07T12:33:59;1.50;;;1.37;;
12814;SDS011;6472;52.328;13.070;2022-12-07T12:36:42;2.00;;;1.33;;
12814;SDS011;6472;52.328;13.070;2022-12-07T12:39:12;2.20;;;1.63;;
12814;SDS011;6472;52.328;13.070;2022-12-07T12:41:54;2.00;;;1.20;;
12814;SDS011;6472;52.328;13.070;2022-12-07T12:50:31;1.03;;;1.03;;
12814;SDS011;6472;52.328;13.070;2022-12-07T12:53:11;6.40;;;2.03;;
12814;SDS011;6472;52.328;13.070;2022-12-07T12:58:43;2.13;;;1.87;;
12814;SDS011;6472;52.328;13.070;2022-12-07T13:04:24;8.77;;;2.13;;
12814;SDS011;6472;52.328;13.070;2022-12-07T13:07:11;4.07;;;1.53;;
12814;SDS011;6472;52.328;13.070;2022-12-07T13:10:01;1.10;;;1.03;;
12814;SDS011;6472;52.328;13.070;2022-12-07T13:12:30;2.60;;;1.17;;
12814;SDS011;6472;52.328;13.070;2022-12-07T13:15:00;2.40;;;1.87;;
12814;SDS011;6472;52.328;13.070;2022-12-07T13:20:45;1.47;;;1.10;;
12814;SDS011;6472;52.328;13.070;2022-12-07T13:29:05;3.13;;;1.93;;
12814;SDS011;6472;52.328;13.070;2022-12-07T13:31:39;3.03;;;1.53;;
12814;SDS011;6472;52.328;13.070;2022-12-07T13:34:29;7.27;;;1.63;;
12814;SDS011;6472;52.328;13.070;2022-12-07T13:36:59;2.73;;;2.33;;
12814;SDS011;6472;52.328;13.070;2022-12-07T13:39:29;3.50;;;2.67;;
12814;SDS011;6472;52.328;13.070;2022-12-07T13:41:58;1.60;;;1.13;;
12814;SDS011;6472;52.328;13.070;2022-12-07T13:44:28;10.77;;;1.87;;
12814;SDS011;6472;52.328;13.070;2022-12-07T13:47:09;8.63;;;1.73;;
12814;SDS011;6472;52.328;13.070;2022-12-07T13:49:46;2.93;;;1.93;;
12814;SDS011;6472;52.328;13.070;2022-12-07T13:52:20;2.93;;;1.70;;
12814;SDS011;6472;52.328;13.070;2022-12-07T13:54:55;2.83;;;2.27;;
12814;SDS011;6472;52.328;13.070;2022-12-07T13:57:24;3.67;;;2.17;;
12814;SDS011;6472;52.328;13.070;2022-12-07T13:59:53;4.70;;;2.33;;
12814;SDS011;6472;52.328;13.070;2022-12-07T14:02:26;2.00;;;1.90;;
12814;SDS011;6472;52.328;13.070;2022-12-07T14:05:07;1.70;;;1.33;;
12814;SDS011;6472;52.328;13.070;2022-12-07T14:07:47;1.10;;;1.10;;
12814;SDS011;6472;52.328;13.070;2022-12-07T14:10:23;3.17;;;1.70;;
12814;SDS011;6472;52.328;13.070;2022-12-07T14:12:54;2.40;;;1.77;;
12814;SDS011;6472;52.328;13.070;2022-12-07T14:15:23;2.27;;;1.93;;
12814;SDS011;6472;52.328;13.070;2022-12-07T14:17:55;2.73;;;1.80;;
12814;SDS011;6472;52.328;13.070;2022-12-07T14:20:31;4.30;;;1.73;;
12814;SDS011;6472;52.328;13.070;2022-12-07T14:23:00;2.23;;;1.47;;
12814;SDS011;6472;52.328;13.070;2022-12-07T14:25:44;1.57;;;1.47;;
12814;SDS011;6472;52.328;13.070;2022-12-07T14:28:26;2.80;;;1.70;;
12814;SDS011;6472;52.328;13.070;2022-12-07T14:30:55;2.70;;;1.30;;
12814;SDS011;6472;52.328;13.070;2022-12-07T14:33:28;1.60;;;1.43;;
12814;SDS011;6472;52.328;13.070;2022-12-07T14:35:57;3.60;;;1.90;;
12814;SDS011;6472;52.328;13.070;2022-12-07T14:38:25;2.53;;;1.57;;
12814;SDS011;6472;52.328;13.070;2022-12-07T14:40:53;1.10;;;1.00;;
12814;SDS011;6472;52.328;13.070;2022-12-07T14:43:44;3.43;;;1.27;;
12814;SDS011;6472;52.328;13.070;2022-12-07T14:46:32;4.43;;;1.57;;
12814;SDS011;6472;52.328;13.070;2022-12-07T14:49:02;1.43;;;1.27;;
12814;SDS011;6472;52.328;13.070;2022-12-07T14:51:50;5.77;;;1.47;;
12814;SDS011;6472;52.328;13.070;2022-12-07T14:54:38;1.50;;;1.13;;
12814;SDS011;6472;52.328;13.070;2022-12-07T14:57:08;6.60;;;1.20;;
12814;SDS011;6472;52.328;13.070;2022-12-07T14:59:37;1.70;;;0.87;;
12814;SDS011;6472;52.328;13.070;2022-12-07T15:02:10;1.60;;;1.50;;
12814;SDS011;6472;52.328;13.070;2022-12-07T15:04:41;1.33;;;1.10;;
12814;SDS011;6472;52.328;13.070;2022-12-07T15:07:10;3.40;;;1.30;;
12814;SDS011;6472;52.328;13.070;2022-12-07T15:09:44;2.80;;;1.70;;
12814;SDS011;6472;52.328;13.070;2022-12-07T15:12:12;2.83;;;1.70;;
12814;SDS011;6472;52.328;13.070;2022-12-07T15:14:40;1.13;;;1.13;;
12814;SDS011;6472;52.328;13.070;2022-12-07T15:17:09;0.77;;;0.77;;
12814;SDS011;6472;52.328;13.070;2022-12-07T15:19:54;2.93;;;1.40;;
12814;SDS011;6472;52.328;13.070;2022-12-07T15:22:22;6.97;;;1.70;;
12814;SDS011;6472;52.328;13.070;2022-12-07T15:24:50;2.67;;;1.80;;
12814;SDS011;6472;52.328;13.070;2022-12-07T15:27:18;1.10;;;1.03;;
12814;SDS011;6472;52.328;13.070;2022-12-07T15:29:46;3.10;;;2.17;;
12814;SDS011;6472;52.328;13.070;2022-12-07T15:32:14;2.97;;;1.43;;
12814;SDS011;6472;52.328;13.070;2022-12-07T15:34:43;6.90;;;2.23;;
12814;SDS011;6472;52.328;13.070;2022-12-07T15:37:12;3.43;;;1.63;;
12814;SDS011;6472;52.328;13.070;2022-12-07T15:39:40;4.40;;;1.80;;
12814;SDS011;6472;52.328;13.070;2022-12-07T15:42:08;1.43;;;1.20;;
12814;SDS011;6472;52.328;13.070;2022-12-07T15:44:36;1.70;;;1.60;;
12814;SDS011;6472;52.328;13.070;2022-12-07T15:47:22;2.00;;;1.47;;
12814;SDS011;6472;52.328;13.070;2022-12-07T15:49:50;9.83;;;1.97;;
12814;SDS011;6472;52.328;13.070;2022-12-07T15:52:19;1.37;;;1.27;;
12814;SDS011;6472;52.328;13.070;2022-12-07T15:54:47;6.17;;;2.03;;
12814;SDS011;6472;52.328;13.070;2022-12-07T15:57:18;8.40;;;1.90;;
12814;SDS011;6472;52.328;13.070;2022-12-07T15:59:50;3.23;;;1.27;;
12814;SDS011;6472;52.328;13.070;2022-12-07T16:02:19;1.77;;;1.67;;